sensor_id;sensor_type;location;lat;lon;timestamp;pressure;altitude;pressure_sealevel;temperature;humidity
63339;BME280;70568;51.378;-1.342;2023-06-22T00:00:19;100471.95;;;15.74;30.22
63339;BME280;70568;51.378;-1.342;2023-06-22T00:02:47;100467.49;;;16.82;29.25
63339;BME280;70568;51.378;-1.342;2023-06-22T00:05:14;100465.05;;;17.50;29.60
63339;BME280;70568;51.378;-1.342;2023-06-22T00:07:41;100468.15;;;16.41;30.67
63339;BME280;70568;51.378;-1.342;2023-06-22T00:10:08;100468.63;;;16.75;29.48
63339;BME280;70568;51.378;-1.342;2023-06-22T00:12:34;100465.05;;;19.57;28.43
63339;BME280;70568;51.378;-1.342;2023-06-22T00:15:01;100464.53;;;17.90;30.24
63339;BME280;70568;51.378;-1.342;2023-06-22T00:17:27;100465.06;;;17.09;31.86
63339;BME280;70568;51.378;-1.342;2023-06-22T00:19:54;100461.29;;;16.05;32.77
63339;BME280;70568;51.378;-1.342;2023-06-22T00:22:21;100457.06;;;16.92;32.18
63339;BME280;70568;51.378;-1.342;2023-06-22T00:24:48;100452.91;;;15.71;31.98
63339;BME280;70568;51.378;-1.342;2023-06-22T00:27:15;100453.00;;;16.24;31.44
63339;BME280;70568;51.378;-1.342;2023-06-22T00:29:42;100456.79;;;17.80;30.02
63339;BME280;70568;51.378;-1.342;2023-06-22T00:32:09;100456.80;;;18.11;30.15
63339;BME280;70568;51.378;-1.342;2023-06-22T00:34:35;100459.45;;;18.16;30.49
63339;BME280;70568;51.378;-1.342;2023-06-22T00:37:02;100461.39;;;15.46;31.94
63339;BME280;70568;51.378;-1.342;2023-06-22T00:39:29;100466.36;;;15.15;32.19
63339;BME280;70568;51.378;-1.342;2023-06-22T00:41:57;100469.25;;;16.62;30.90
63339;BME280;70568;51.378;-1.342;2023-06-22T00:44:24;100472.62;;;16.61;30.22
63339;BME280;70568;51.378;-1.342;2023-06-22T00:46:51;100472.15;;;18.13;29.52
63339;BME280;70568;51.378;-1.342;2023-06-22T00:49:19;100470.94;;;17.27;29.01
63339;BME280;70568;51.378;-1.342;2023-06-22T00:51:46;100469.56;;;18.21;28.53
63339;BME280;70568;51.378;-1.342;2023-06-22T00:54:13;100471.59;;;16.24;29.79
63339;BME280;70568;51.378;-1.342;2023-06-22T00:56:40;100469.51;;;15.84;29.27
63339;BME280;70568;51.378;-1.342;2023-06-22T00:59:07;100469.73;;;15.88;29.95
63339;BME280;70568;51.378;-1.342;2023-06-22T01:01:34;100469.37;;;14.06;30.62
63339;BME280;70568;51.378;-1.342;2023-06-22T01:04:00;100460.77;;;14.81;29.77
63339;BME280;70568;51.378;-1.342;2023-06-22T01:06:35;100454.21;;;16.16;28.83
63339;BME280;70568;51.378;-1.342;2023-06-22T01:09:10;100454.62;;;15.60;29.53
63339;BME280;70568;51.378;-1.342;2023-06-22T01:11:43;100453.03;;;15.66;28.09
63339;BME280;70568;51.378;-1.342;2023-06-22T01:14:15;100460.14;;;14.34;29.11
63339;BME280;70568;51.378;-1.342;2023-06-22T01:16:47;100465.44;;;15.44;28.82
63339;BME280;70568;51.378;-1.342;2023-06-22T01:19:37;100467.79;;;15.40;28.87
63339;BME280;70568;51.378;-1.342;2023-06-22T01:22:06;100465.53;;;17.29;27.33
63339;BME280;70568;51.378;-1.342;2023-06-22T01:24:41;100462.69;;;15.40;27.34
63339;BME280;70568;51.378;-1.342;2023-06-22T01:27:20;100465.73;;;16.30;28.75
63339;BME280;70568;51.378;-1.342;2023-06-22T01:29:56;100472.42;;;14.94;29.15
63339;BME280;70568;51.378;-1.342;2023-06-22T01:32:24;100470.74;;;15.45;28.74
63339;BME280;70568;51.378;-1.342;2023-06-22T01:34:51;100470.09;;;14.48;28.91
63339;BME280;70568;51.378;-1.342;2023-06-22T01:37:19;100464.63;;;14.94;28.96
63339;BME280;70568;51.378;-1.342;2023-06-22T01:39:46;100461.80;;;14.67;28.40
63339;BME280;70568;51.378;-1.342;2023-06-22T01:42:13;100467.05;;;15.21;28.06
63339;BME280;70568;51.378;-1.342;2023-06-22T01:44:41;100471.90;;;15.70;27.47
63339;BME280;70568;51.378;-1.342;2023-06-22T01:47:07;100472.73;;;15.26;27.83
63339;BME280;70568;51.378;-1.342;2023-06-22T01:49:34;100469.93;;;14.66;28.45
63339;BME280;70568;51.378;-1.342;2023-06-22T01:52:01;100466.12;;;15.43;27.90
63339;BME280;70568;51.378;-1.342;2023-06-22T01:54:29;100467.46;;;14.85;28.69
63339;BME280;70568;51.378;-1.342;2023-06-22T01:56:56;100469.34;;;15.21;28.06
63339;BME280;70568;51.378;-1.342;2023-06-22T01:59:26;100472.09;;;15.56;28.47
63339;BME280;70568;51.378;-1.342;2023-06-22T02:02:00;100468.96;;;15.11;28.64
63339;BME280;70568;51.378;-1.342;2023-06-22T02:04:39;100476.26;;;15.56;28.67
63339;BME280;70568;51.378;-1.342;2023-06-22T02:07:12;100481.51;;;13.08;28.96
63339;BME280;70568;51.378;-1.342;2023-06-22T02:09:43;100481.55;;;14.72;28.16
63339;BME280;70568;51.378;-1.342;2023-06-22T02:12:11;100477.60;;;15.30;27.61
63339;BME280;70568;51.378;-1.342;2023-06-22T02:14:39;100476.10;;;15.00;27.78
63339;BME280;70568;51.378;-1.342;2023-06-22T02:17:08;100471.27;;;14.85;27.85
63339;BME280;70568;51.378;-1.342;2023-06-22T02:19:36;100471.70;;;15.69;27.93
63339;BME280;70568;51.378;-1.342;2023-06-22T02:22:04;100467.51;;;16.61;27.29
63339;BME280;70568;51.378;-1.342;2023-06-22T02:24:31;100470.00;;;14.25;28.80
63339;BME280;70568;51.378;-1.342;2023-06-22T02:26:57;100474.16;;;14.41;29.61
63339;BME280;70568;51.378;-1.342;2023-06-22T02:29:25;100471.14;;;12.96;28.97
63339;BME280;70568;51.378;-1.342;2023-06-22T02:31:52;100469.72;;;14.67;28.27
63339;BME280;70568;51.378;-1.342;2023-06-22T02:34:19;100468.54;;;15.62;28.27
63339;BME280;70568;51.378;-1.342;2023-06-22T02:36:46;100469.32;;;14.91;28.37
63339;BME280;70568;51.378;-1.342;2023-06-22T02:39:13;100475.82;;;14.91;27.97
63339;BME280;70568;51.378;-1.342;2023-06-22T02:41:40;100477.59;;;15.79;28.27
63339;BME280;70568;51.378;-1.342;2023-06-22T02:44:07;100478.82;;;15.22;29.36
63339;BME280;70568;51.378;-1.342;2023-06-22T02:46:33;100477.83;;;14.03;28.87
63339;BME280;70568;51.378;-1.342;2023-06-22T02:49:00;100477.05;;;15.69;27.90
63339;BME280;70568;51.378;-1.342;2023-06-22T02:51:28;100478.46;;;15.47;27.81
63339;BME280;70568;51.378;-1.342;2023-06-22T02:53:55;100477.00;;;15.10;28.04
63339;BME280;70568;51.378;-1.342;2023-06-22T02:56:23;100485.38;;;15.18;27.62
63339;BME280;70568;51.378;-1.342;2023-06-22T02:58:50;100483.77;;;12.85;29.04
63339;BME280;70568;51.378;-1.342;2023-06-22T03:01:17;100482.90;;;13.56;29.35
63339;BME280;70568;51.378;-1.342;2023-06-22T03:03:43;100477.81;;;14.01;29.44
63339;BME280;70568;51.378;-1.342;2023-06-22T03:06:10;100470.81;;;13.44;29.16
63339;BME280;70568;51.378;-1.342;2023-06-22T03:08:36;100465.70;;;12.41;29.54
63339;BME280;70568;51.378;-1.342;2023-06-22T03:11:03;100464.78;;;14.53;27.42
63339;BME280;70568;51.378;-1.342;2023-06-22T03:13:30;100464.16;;;14.90;28.24
63339;BME280;70568;51.378;-1.342;2023-06-22T03:15:57;100459.83;;;15.36;27.42
63339;BME280;70568;51.378;-1.342;2023-06-22T03:18:25;100457.57;;;16.93;27.47
63339;BME280;70568;51.378;-1.342;2023-06-22T03:20:52;100452.52;;;14.51;28.41
63339;BME280;70568;51.378;-1.342;2023-06-22T03:23:19;100455.81;;;15.92;28.54
63339;BME280;70568;51.378;-1.342;2023-06-22T03:25:46;100453.81;;;16.56;28.23
63339;BME280;70568;51.378;-1.342;2023-06-22T03:28:13;100457.50;;;16.38;28.18
63339;BME280;70568;51.378;-1.342;2023-06-22T03:30:40;100456.36;;;14.63;29.10
63339;BME280;70568;51.378;-1.342;2023-06-22T03:33:06;100455.90;;;15.24;28.41
63339;BME280;70568;51.378;-1.342;2023-06-22T03:35:33;100456.05;;;14.90;29.71
63339;BME280;70568;51.378;-1.342;2023-06-22T03:38:02;100455.02;;;18.09;29.10
63339;BME280;70568;51.378;-1.342;2023-06-22T03:40:29;100454.68;;;15.92;30.48
63339;BME280;70568;51.378;-1.342;2023-06-22T03:42:56;100452.49;;;15.72;31.58
63339;BME280;70568;51.378;-1.342;2023-06-22T03:45:23;100450.45;;;15.29;31.51
63339;BME280;70568;51.378;-1.342;2023-06-22T03:47:51;100449.05;;;15.10;31.26
63339;BME280;70568;51.378;-1.342;2023-06-22T03:50:18;100447.54;;;15.29;31.06
63339;BME280;70568;51.378;-1.342;2023-06-22T03:52:45;100446.50;;;15.69;31.22
63339;BME280;70568;51.378;-1.342;2023-06-22T03:55:12;100441.30;;;13.18;32.40
63339;BME280;70568;51.378;-1.342;2023-06-22T03:57:39;100442.85;;;15.46;31.58
63339;BME280;70568;51.378;-1.342;2023-06-22T04:00:08;100438.41;;;15.88;31.62
63339;BME280;70568;51.378;-1.342;2023-06-22T04:02:35;100436.36;;;15.85;32.57
63339;BME280;70568;51.378;-1.342;2023-06-22T04:05:03;100438.17;;;14.21;32.69
63339;BME280;70568;51.378;-1.342;2023-06-22T04:07:29;100436.26;;;14.52;32.28
63339;BME280;70568;51.378;-1.342;2023-06-22T04:09:56;100445.72;;;14.16;32.80
63339;BME280;70568;51.378;-1.342;2023-06-22T04:12:24;100447.46;;;15.05;33.18
63339;BME280;70568;51.378;-1.342;2023-06-22T04:14:51;100447.54;;;14.10;32.21
63339;BME280;70568;51.378;-1.342;2023-06-22T04:17:17;100449.23;;;13.35;32.18
63339;BME280;70568;51.378;-1.342;2023-06-22T04:19:44;100453.15;;;14.95;31.68
63339;BME280;70568;51.378;-1.342;2023-06-22T04:22:11;100455.17;;;14.03;31.67
63339;BME280;70568;51.378;-1.342;2023-06-22T04:24:38;100453.94;;;14.83;30.68
63339;BME280;70568;51.378;-1.342;2023-06-22T04:27:05;100451.52;;;16.26;30.64
63339;BME280;70568;51.378;-1.342;2023-06-22T04:29:32;100453.15;;;14.84;31.43
63339;BME280;70568;51.378;-1.342;2023-06-22T04:31:59;100458.52;;;15.25;32.50
63339;BME280;70568;51.378;-1.342;2023-06-22T04:34:26;100458.62;;;15.82;32.89
63339;BME280;70568;51.378;-1.342;2023-06-22T04:36:53;100461.84;;;14.87;32.88
63339;BME280;70568;51.378;-1.342;2023-06-22T04:39:20;100457.60;;;15.48;33.70
63339;BME280;70568;51.378;-1.342;2023-06-22T04:41:47;100457.10;;;13.74;34.46
63339;BME280;70568;51.378;-1.342;2023-06-22T04:44:16;100455.60;;;13.95;34.79
63339;BME280;70568;51.378;-1.342;2023-06-22T04:46:43;100460.90;;;14.32;34.39
63339;BME280;70568;51.378;-1.342;2023-06-22T04:49:10;100455.47;;;13.93;34.04
63339;BME280;70568;51.378;-1.342;2023-06-22T04:51:39;100457.35;;;13.65;33.82
63339;BME280;70568;51.378;-1.342;2023-06-22T04:54:06;100459.62;;;14.95;35.50
63339;BME280;70568;51.378;-1.342;2023-06-22T04:56:33;100463.65;;;13.88;35.52
63339;BME280;70568;51.378;-1.342;2023-06-22T04:59:01;100467.02;;;13.43;35.53
63339;BME280;70568;51.378;-1.342;2023-06-22T05:01:28;100469.81;;;14.40;35.00
63339;BME280;70568;51.378;-1.342;2023-06-22T05:03:55;100469.32;;;13.20;35.23
63339;BME280;70568;51.378;-1.342;2023-06-22T05:06:23;100466.56;;;15.01;34.80
63339;BME280;70568;51.378;-1.342;2023-06-22T05:08:49;100465.64;;;14.93;34.44
63339;BME280;70568;51.378;-1.342;2023-06-22T05:11:16;100463.36;;;13.87;34.16
63339;BME280;70568;51.378;-1.342;2023-06-22T05:13:43;100462.23;;;14.95;33.02
63339;BME280;70568;51.378;-1.342;2023-06-22T05:16:10;100462.38;;;15.79;33.15
63339;BME280;70568;51.378;-1.342;2023-06-22T05:18:37;100462.87;;;14.81;33.26
63339;BME280;70568;51.378;-1.342;2023-06-22T05:21:04;100464.92;;;15.27;33.36
63339;BME280;70568;51.378;-1.342;2023-06-22T05:23:30;100466.69;;;14.62;33.56
63339;BME280;70568;51.378;-1.342;2023-06-22T05:25:57;100465.47;;;14.20;33.66
63339;BME280;70568;51.378;-1.342;2023-06-22T05:28:25;100464.66;;;15.02;33.00
63339;BME280;70568;51.378;-1.342;2023-06-22T05:30:52;100466.75;;;15.07;33.01
63339;BME280;70568;51.378;-1.342;2023-06-22T05:33:19;100468.44;;;15.20;33.47
63339;BME280;70568;51.378;-1.342;2023-06-22T05:35:45;100472.16;;;15.17;33.64
63339;BME280;70568;51.378;-1.342;2023-06-22T05:38:12;100476.77;;;14.64;33.79
63339;BME280;70568;51.378;-1.342;2023-06-22T05:40:39;100486.37;;;14.46;35.25
63339;BME280;70568;51.378;-1.342;2023-06-22T05:43:06;100495.01;;;13.41;36.91
63339;BME280;70568;51.378;-1.342;2023-06-22T05:45:34;100494.20;;;14.49;36.97
63339;BME280;70568;51.378;-1.342;2023-06-22T05:48:00;100500.73;;;14.21;37.89
63339;BME280;70568;51.378;-1.342;2023-06-22T05:50:27;100500.28;;;15.15;37.59
63339;BME280;70568;51.378;-1.342;2023-06-22T05:52:54;100502.03;;;14.63;38.40
63339;BME280;70568;51.378;-1.342;2023-06-22T05:55:22;100500.60;;;13.87;37.56
63339;BME280;70568;51.378;-1.342;2023-06-22T05:57:49;100501.51;;;14.39;36.78
63339;BME280;70568;51.378;-1.342;2023-06-22T06:00:17;100500.64;;;13.70;37.36
63339;BME280;70568;51.378;-1.342;2023-06-22T06:02:44;100500.41;;;10.80;36.77
63339;BME280;70568;51.378;-1.342;2023-06-22T06:05:11;100497.14;;;15.10;33.75
63339;BME280;70568;51.378;-1.342;2023-06-22T06:07:37;100496.45;;;16.20;33.87
63339;BME280;70568;51.378;-1.342;2023-06-22T06:10:05;100497.03;;;15.67;33.77
63339;BME280;70568;51.378;-1.342;2023-06-22T06:12:32;100501.76;;;15.75;34.34
63339;BME280;70568;51.378;-1.342;2023-06-22T06:14:59;100505.63;;;15.51;35.14
63339;BME280;70568;51.378;-1.342;2023-06-22T06:17:25;100512.45;;;15.42;36.23
63339;BME280;70568;51.378;-1.342;2023-06-22T06:19:53;100503.62;;;14.94;36.05
63339;BME280;70568;51.378;-1.342;2023-06-22T06:22:20;100494.46;;;15.17;36.02
63339;BME280;70568;51.378;-1.342;2023-06-22T06:24:47;100485.69;;;14.65;37.55
63339;BME280;70568;51.378;-1.342;2023-06-22T06:27:14;100488.54;;;13.82;38.53
63339;BME280;70568;51.378;-1.342;2023-06-22T06:29:41;100495.19;;;14.24;39.26
63339;BME280;70568;51.378;-1.342;2023-06-22T06:32:09;100496.78;;;14.40;38.57
63339;BME280;70568;51.378;-1.342;2023-06-22T06:34:36;100493.39;;;13.84;39.12
63339;BME280;70568;51.378;-1.342;2023-06-22T06:37:03;100485.93;;;13.93;40.26
63339;BME280;70568;51.378;-1.342;2023-06-22T06:39:30;100483.56;;;14.28;40.58
63339;BME280;70568;51.378;-1.342;2023-06-22T06:41:57;100479.38;;;14.84;39.86
63339;BME280;70568;51.378;-1.342;2023-06-22T06:44:24;100484.01;;;14.22;39.38
63339;BME280;70568;51.378;-1.342;2023-06-22T06:46:51;100485.75;;;13.71;40.53
63339;BME280;70568;51.378;-1.342;2023-06-22T06:49:18;100490.94;;;13.90;42.67
63339;BME280;70568;51.378;-1.342;2023-06-22T06:51:45;100488.72;;;13.34;43.63
63339;BME280;70568;51.378;-1.342;2023-06-22T06:54:11;100488.24;;;12.85;43.28
63339;BME280;70568;51.378;-1.342;2023-06-22T06:56:39;100486.96;;;13.06;44.38
63339;BME280;70568;51.378;-1.342;2023-06-22T06:59:06;100484.91;;;12.68;43.53
63339;BME280;70568;51.378;-1.342;2023-06-22T07:01:33;100484.50;;;11.36;43.92
63339;BME280;70568;51.378;-1.342;2023-06-22T07:04:00;100483.95;;;13.44;40.08
63339;BME280;70568;51.378;-1.342;2023-06-22T07:06:27;100483.34;;;13.52;39.98
63339;BME280;70568;51.378;-1.342;2023-06-22T07:08:55;100477.81;;;14.02;39.24
63339;BME280;70568;51.378;-1.342;2023-06-22T07:11:22;100476.58;;;12.59;40.11
63339;BME280;70568;51.378;-1.342;2023-06-22T07:13:49;100477.93;;;15.48;37.50
63339;BME280;70568;51.378;-1.342;2023-06-22T07:16:15;100487.08;;;14.77;39.33
63339;BME280;70568;51.378;-1.342;2023-06-22T07:18:43;100492.91;;;11.85;41.09
63339;BME280;70568;51.378;-1.342;2023-06-22T07:21:10;100490.22;;;13.48;39.16
63339;BME280;70568;51.378;-1.342;2023-06-22T07:23:36;100483.98;;;13.07;37.88
63339;BME280;70568;51.378;-1.342;2023-06-22T07:26:02;100485.90;;;16.63;36.01
63339;BME280;70568;51.378;-1.342;2023-06-22T07:28:29;100485.88;;;14.86;37.44
63339;BME280;70568;51.378;-1.342;2023-06-22T07:30:56;100485.79;;;15.85;36.02
63339;BME280;70568;51.378;-1.342;2023-06-22T07:33:23;100485.31;;;16.35;35.15
63339;BME280;70568;51.378;-1.342;2023-06-22T07:35:51;100480.72;;;15.57;36.03
63339;BME280;70568;51.378;-1.342;2023-06-22T07:38:18;100481.49;;;13.82;38.10
63339;BME280;70568;51.378;-1.342;2023-06-22T07:40:45;100482.23;;;14.39;36.93
63339;BME280;70568;51.378;-1.342;2023-06-22T07:43:12;100485.50;;;15.73;36.06
63339;BME280;70568;51.378;-1.342;2023-06-22T07:45:39;100482.04;;;14.74;36.20
63339;BME280;70568;51.378;-1.342;2023-06-22T07:48:06;100481.09;;;16.85;34.33
63339;BME280;70568;51.378;-1.342;2023-06-22T07:50:33;100481.31;;;13.85;36.26
63339;BME280;70568;51.378;-1.342;2023-06-22T07:53:00;100478.92;;;17.79;33.68
63339;BME280;70568;51.378;-1.342;2023-06-22T07:55:27;100483.78;;;16.57;33.87
63339;BME280;70568;51.378;-1.342;2023-06-22T07:57:54;100476.65;;;17.29;35.13
63339;BME280;70568;51.378;-1.342;2023-06-22T08:00:21;100479.71;;;18.20;34.25
63339;BME280;70568;51.378;-1.342;2023-06-22T08:02:48;100478.20;;;17.81;34.33
63339;BME280;70568;51.378;-1.342;2023-06-22T08:05:15;100476.08;;;15.27;35.79
63339;BME280;70568;51.378;-1.342;2023-06-22T08:07:42;100474.52;;;17.32;33.79
63339;BME280;70568;51.378;-1.342;2023-06-22T08:10:11;100473.12;;;17.63;35.19
63339;BME280;70568;51.378;-1.342;2023-06-22T08:12:38;100468.58;;;16.91;35.37
63339;BME280;70568;51.378;-1.342;2023-06-22T08:15:07;100470.99;;;17.05;37.27
63339;BME280;70568;51.378;-1.342;2023-06-22T08:17:34;100470.80;;;17.02;37.82
63339;BME280;70568;51.378;-1.342;2023-06-22T08:20:01;100468.89;;;14.35;38.96
63339;BME280;70568;51.378;-1.342;2023-06-22T08:22:28;100471.30;;;16.00;38.29
63339;BME280;70568;51.378;-1.342;2023-06-22T08:24:55;100469.20;;;18.41;36.00
63339;BME280;70568;51.378;-1.342;2023-06-22T08:27:22;100469.72;;;17.87;34.98
63339;BME280;70568;51.378;-1.342;2023-06-22T08:29:49;100470.25;;;18.27;35.05
63339;BME280;70568;51.378;-1.342;2023-06-22T08:32:15;100474.21;;;16.18;37.59
63339;BME280;70568;51.378;-1.342;2023-06-22T08:34:42;100471.80;;;18.30;36.16
63339;BME280;70568;51.378;-1.342;2023-06-22T08:37:09;100470.16;;;17.40;36.31
63339;BME280;70568;51.378;-1.342;2023-06-22T08:39:37;100472.19;;;15.39;36.18
63339;BME280;70568;51.378;-1.342;2023-06-22T08:42:04;100475.04;;;18.02;34.94
63339;BME280;70568;51.378;-1.342;2023-06-22T08:44:31;100472.90;;;17.62;34.50
63339;BME280;70568;51.378;-1.342;2023-06-22T08:46:58;100472.94;;;16.52;34.16
63339;BME280;70568;51.378;-1.342;2023-06-22T08:49:26;100472.01;;;16.25;34.07
63339;BME280;70568;51.378;-1.342;2023-06-22T08:51:52;100470.54;;;16.70;34.01
63339;BME280;70568;51.378;-1.342;2023-06-22T08:54:19;100468.78;;;14.01;36.64
63339;BME280;70568;51.378;-1.342;2023-06-22T08:56:47;100461.51;;;18.18;31.02
63339;BME280;70568;51.378;-1.342;2023-06-22T08:59:14;100465.34;;;18.13;30.09
63339;BME280;70568;51.378;-1.342;2023-06-22T09:01:40;100466.40;;;18.04;31.06
63339;BME280;70568;51.378;-1.342;2023-06-22T09:04:08;100464.29;;;17.74;31.29
63339;BME280;70568;51.378;-1.342;2023-06-22T09:06:35;100466.50;;;18.00;30.71
63339;BME280;70568;51.378;-1.342;2023-06-22T09:09:01;100467.54;;;19.08;29.98
63339;BME280;70568;51.378;-1.342;2023-06-22T09:11:28;100472.98;;;17.95;30.23
63339;BME280;70568;51.378;-1.342;2023-06-22T09:13:55;100473.08;;;18.02;30.16
63339;BME280;70568;51.378;-1.342;2023-06-22T09:16:22;100473.91;;;20.20;29.12
63339;BME280;70568;51.378;-1.342;2023-06-22T09:18:50;100473.87;;;19.74;29.96
63339;BME280;70568;51.378;-1.342;2023-06-22T09:21:16;100474.23;;;19.94;29.09
63339;BME280;70568;51.378;-1.342;2023-06-22T09:23:44;100481.82;;;18.92;31.84
63339;BME280;70568;51.378;-1.342;2023-06-22T09:26:12;100484.50;;;18.13;32.41
63339;BME280;70568;51.378;-1.342;2023-06-22T09:28:39;100485.54;;;15.71;33.64
63339;BME280;70568;51.378;-1.342;2023-06-22T09:31:06;100486.08;;;16.19;33.47
63339;BME280;70568;51.378;-1.342;2023-06-22T09:33:33;100478.06;;;17.83;30.96
63339;BME280;70568;51.378;-1.342;2023-06-22T09:36:00;100475.58;;;19.43;28.31
63339;BME280;70568;51.378;-1.342;2023-06-22T09:38:27;100482.41;;;16.34;29.28
63339;BME280;70568;51.378;-1.342;2023-06-22T09:40:54;100479.43;;;16.44;28.96
63339;BME280;70568;51.378;-1.342;2023-06-22T09:43:21;100477.63;;;19.66;28.25
63339;BME280;70568;51.378;-1.342;2023-06-22T09:45:48;100479.37;;;20.67;25.40
63339;BME280;70568;51.378;-1.342;2023-06-22T09:48:15;100481.57;;;19.44;27.57
63339;BME280;70568;51.378;-1.342;2023-06-22T09:50:42;100487.85;;;19.14;26.45
63339;BME280;70568;51.378;-1.342;2023-06-22T09:53:08;100489.71;;;19.64;25.70
63339;BME280;70568;51.378;-1.342;2023-06-22T09:55:34;100485.44;;;18.99;25.87
63339;BME280;70568;51.378;-1.342;2023-06-22T09:58:02;100487.49;;;20.01;25.30
63339;BME280;70568;51.378;-1.342;2023-06-22T10:00:29;100487.48;;;21.36;24.51
63339;BME280;70568;51.378;-1.342;2023-06-22T10:02:57;100486.35;;;20.78;25.18
63339;BME280;70568;51.378;-1.342;2023-06-22T10:05:25;100485.95;;;18.77;26.00
63339;BME280;70568;51.378;-1.342;2023-06-22T10:07:53;100485.25;;;21.17;23.80
63339;BME280;70568;51.378;-1.342;2023-06-22T10:10:20;100481.95;;;18.78;24.01
63339;BME280;70568;51.378;-1.342;2023-06-22T10:12:55;100484.44;;;19.75;23.96
63339;BME280;70568;51.378;-1.342;2023-06-22T10:15:23;100483.02;;;19.28;24.10
63339;BME280;70568;51.378;-1.342;2023-06-22T10:17:50;100480.36;;;19.68;23.93
63339;BME280;70568;51.378;-1.342;2023-06-22T10:20:17;100480.47;;;20.66;23.65
63339;BME280;70568;51.378;-1.342;2023-06-22T10:22:45;100481.35;;;19.99;24.50
63339;BME280;70568;51.378;-1.342;2023-06-22T10:25:13;100488.20;;;22.72;21.96
63339;BME280;70568;51.378;-1.342;2023-06-22T10:27:41;100484.51;;;20.76;23.94
63339;BME280;70568;51.378;-1.342;2023-06-22T10:30:09;100489.19;;;20.32;21.94
63339;BME280;70568;51.378;-1.342;2023-06-22T10:32:38;100487.70;;;21.04;23.61
63339;BME280;70568;51.378;-1.342;2023-06-22T10:35:06;100485.64;;;20.01;22.04
63339;BME280;70568;51.378;-1.342;2023-06-22T10:37:32;100484.72;;;20.24;23.05
63339;BME280;70568;51.378;-1.342;2023-06-22T10:40:00;100488.77;;;20.28;23.27
63339;BME280;70568;51.378;-1.342;2023-06-22T10:42:26;100492.48;;;21.80;21.78
63339;BME280;70568;51.378;-1.342;2023-06-22T10:44:54;100492.35;;;18.89;22.06
63339;BME280;70568;51.378;-1.342;2023-06-22T10:47:21;100490.64;;;20.01;21.31
63339;BME280;70568;51.378;-1.342;2023-06-22T10:49:48;100486.60;;;21.51;21.37
63339;BME280;70568;51.378;-1.342;2023-06-22T10:52:15;100489.24;;;21.26;20.97
63339;BME280;70568;51.378;-1.342;2023-06-22T10:54:43;100486.75;;;19.44;22.94
63339;BME280;70568;51.378;-1.342;2023-06-22T10:57:10;100488.00;;;20.48;22.50
63339;BME280;70568;51.378;-1.342;2023-06-22T10:59:36;100483.47;;;22.12;22.03
63339;BME280;70568;51.378;-1.342;2023-06-22T11:02:04;100489.16;;;20.65;20.56
63339;BME280;70568;51.378;-1.342;2023-06-22T11:04:32;100487.21;;;20.08;22.33
63339;BME280;70568;51.378;-1.342;2023-06-22T11:06:59;100490.55;;;20.96;22.11
63339;BME280;70568;51.378;-1.342;2023-06-22T11:09:26;100489.97;;;21.17;22.26
63339;BME280;70568;51.378;-1.342;2023-06-22T11:11:53;100489.60;;;22.45;22.65
63339;BME280;70568;51.378;-1.342;2023-06-22T11:14:21;100490.50;;;20.06;24.36
63339;BME280;70568;51.378;-1.342;2023-06-22T11:16:48;100492.47;;;20.44;21.85
63339;BME280;70568;51.378;-1.342;2023-06-22T11:19:15;100493.12;;;20.11;21.65
63339;BME280;70568;51.378;-1.342;2023-06-22T11:21:42;100491.89;;;18.33;21.80
63339;BME280;70568;51.378;-1.342;2023-06-22T11:24:09;100494.39;;;23.14;22.09
63339;BME280;70568;51.378;-1.342;2023-06-22T11:26:37;100497.62;;;17.89;25.54
63339;BME280;70568;51.378;-1.342;2023-06-22T11:29:04;100491.66;;;19.09;25.29
63339;BME280;70568;51.378;-1.342;2023-06-22T11:31:31;100490.53;;;21.22;22.92
63339;BME280;70568;51.378;-1.342;2023-06-22T11:33:58;100490.87;;;20.09;23.78
63339;BME280;70568;51.378;-1.342;2023-06-22T11:36:26;100491.27;;;21.19;23.35
63339;BME280;70568;51.378;-1.342;2023-06-22T11:38:54;100489.73;;;19.38;24.41
63339;BME280;70568;51.378;-1.342;2023-06-22T11:41:21;100492.49;;;20.03;23.33
63339;BME280;70568;51.378;-1.342;2023-06-22T11:43:48;100486.99;;;20.86;22.90
63339;BME280;70568;51.378;-1.342;2023-06-22T11:46:15;100484.74;;;21.07;22.64
63339;BME280;70568;51.378;-1.342;2023-06-22T11:48:43;100485.13;;;19.09;23.98
63339;BME280;70568;51.378;-1.342;2023-06-22T11:51:10;100483.78;;;17.49;26.25
63339;BME280;70568;51.378;-1.342;2023-06-22T11:53:37;100485.71;;;18.85;22.32
63339;BME280;70568;51.378;-1.342;2023-06-22T11:56:04;100487.73;;;20.21;19.97
63339;BME280;70568;51.378;-1.342;2023-06-22T11:58:31;100488.40;;;20.32;21.96
63339;BME280;70568;51.378;-1.342;2023-06-22T12:00:59;100487.03;;;20.97;19.49
63339;BME280;70568;51.378;-1.342;2023-06-22T12:03:26;100480.10;;;22.94;19.24
63339;BME280;70568;51.378;-1.342;2023-06-22T12:05:53;100481.44;;;23.01;20.27
63339;BME280;70568;51.378;-1.342;2023-06-22T12:08:21;100473.09;;;21.84;21.47
63339;BME280;70568;51.378;-1.342;2023-06-22T12:10:50;100468.38;;;21.22;23.89
63339;BME280;70568;51.378;-1.342;2023-06-22T12:13:16;100467.96;;;19.07;23.82
63339;BME280;70568;51.378;-1.342;2023-06-22T12:15:44;100468.91;;;19.95;22.51
63339;BME280;70568;51.378;-1.342;2023-06-22T12:18:11;100473.75;;;16.30;24.04
63339;BME280;70568;51.378;-1.342;2023-06-22T12:20:38;100473.45;;;15.81;24.45
63339;BME280;70568;51.378;-1.342;2023-06-22T12:23:05;100463.98;;;20.20;21.12
63339;BME280;70568;51.378;-1.342;2023-06-22T12:25:33;100457.68;;;21.91;21.56
63339;BME280;70568;51.378;-1.342;2023-06-22T12:28:00;100452.98;;;18.60;23.72
63339;BME280;70568;51.378;-1.342;2023-06-22T12:30:27;100454.68;;;17.04;25.20
63339;BME280;70568;51.378;-1.342;2023-06-22T12:32:55;100459.61;;;18.92;23.08
63339;BME280;70568;51.378;-1.342;2023-06-22T12:35:22;100455.10;;;21.42;21.55
63339;BME280;70568;51.378;-1.342;2023-06-22T12:37:49;100451.63;;;22.04;21.39
63339;BME280;70568;51.378;-1.342;2023-06-22T12:40:16;100445.79;;;20.65;22.49